Terminal Aerodrome Forecast
Issued by NWS Mt. Holly, NJ

Home | Current Version | Previous Version | Text Only | Print | Product List | Glossary On
Versions: 1 2 3 4 5 6 7 8 9 10 11 12 13 14 15 16 17 18 19 20 21
000
FTUS41 KPHI 100300 AAC
TAFACY
TAF AMD
KACY 100325Z 1003/1024 19008KT P6SM SCT045 BKN100
      TEMPO 1003/1007 4SM BR BKN015
     FM100700 23005KT P6SM BKN045
     FM100900 19004KT P6SM BKN050
     FM101400 12004KT P6SM BKN045
     FM101800 15006KT P6SM VCSH BKN045
     FM102300 18004KT P6SM BKN045=

USA.gov is the U.S. government's official web portal to all federal, state and local government web resources and services.